Time;durP1;ratioP1;P1;durP2;ratioP2;P2;SDS_P1;SDS_P2;PMS_P1;PMS_P2;Temp;Humidity;BMP_temperature;BMP_pressure;BME280_temperature;BME280_humidity;BME280_pressure;Samples;Min_cycle;Max_cycle;Signal;HPM_P1;HPM_P2
2022/10/17 00:00:49;;;;;;;12.93;8.43;;;;;;;4.70;63.31;102180.58;1735886;82;21082;-67
2022/10/17 00:03:15;;;;;;;13.40;9.03;;;;;;;4.69;63.30;102180.23;1733944;82;21159;-68
2022/10/17 00:05:46;;;;;;;13.08;8.68;;;;;;;4.67;63.29;102186.70;1733839;82;20972;-68
2022/10/17 00:08:14;;;;;;;14.00;9.23;;;;;;;4.65;63.29;102188.72;1733959;82;21542;-68
2022/10/17 00:10:42;;;;;;;12.75;8.70;;;;;;;4.63;63.37;102186.73;1734185;82;20975;-67
2022/10/17 00:13:10;;;;;;;14.05;8.85;;;;;;;4.62;63.38;102193.04;1733858;82;20976;-67
2022/10/17 00:15:37;;;;;;;12.93;8.35;;;;;;;4.57;63.43;102190.09;1719756;83;21176;-67
2022/10/17 00:18:05;;;;;;;11.93;8.33;;;;;;;4.56;63.42;102197.71;1735758;82;21050;-67
2022/10/17 00:20:35;;;;;;;12.95;8.35;;;;;;;4.55;63.45;102198.72;1734122;82;21149;-66
2022/10/17 00:23:03;;;;;;;14.47;8.88;;;;;;;4.54;63.47;102201.02;1734054;82;21054;-66
2022/10/17 00:25:30;;;;;;;12.58;8.45;;;;;;;4.52;63.54;102193.78;1733978;82;21041;-66
2022/10/17 00:27:57;;;;;;;12.30;8.68;;;;;;;4.53;63.62;102204.68;1734014;82;21167;-67
2022/10/17 00:30:25;;;;;;;13.25;8.95;;;;;;;4.53;63.64;102206.00;1733985;82;20959;-67
2022/10/17 00:32:53;;;;;;;11.40;8.15;;;;;;;4.52;63.65;102199.89;1736207;82;20967;-67
2022/10/17 00:35:20;;;;;;;12.85;8.63;;;;;;;4.49;63.66;102198.92;1736284;82;20951;-67
2022/10/17 00:37:48;;;;;;;12.85;8.80;;;;;;;4.45;63.61;102200.28;1736169;82;21597;-67
2022/10/17 00:40:15;;;;;;;14.53;9.33;;;;;;;4.44;63.57;102201.26;1735963;82;21522;-67
2022/10/17 00:42:42;;;;;;;13.95;9.00;;;;;;;4.43;63.58;102200.94;1736241;82;21506;-67
2022/10/17 00:45:14;;;;;;;13.72;9.03;;;;;;;4.42;63.68;102199.30;1736276;82;20978;-66
2022/10/17 00:47:44;;;;;;;16.65;10.13;;;;;;;4.42;63.80;102204.59;1736008;82;21048;-67
2022/10/17 00:50:11;;;;;;;14.53;10.00;;;;;;;4.42;63.94;102212.03;1736278;81;21549;-67
2022/10/17 00:52:37;;;;;;;15.85;10.32;;;;;;;4.44;64.03;102215.34;1736400;82;21574;-68
2022/10/17 00:55:17;;;;;;;14.18;9.90;;;;;;;4.47;64.17;102208.84;1736277;82;21007;-67
2022/10/17 00:57:44;;;;;;;14.43;9.65;;;;;;;4.49;64.32;102210.01;1736295;82;21545;-66
2022/10/17 01:00:13;;;;;;;13.70;9.40;;;;;;;4.52;64.47;102213.63;1736226;82;21541;-67
2022/10/17 01:02:40;;;;;;;11.93;8.85;;;;;;;4.52;64.59;102208.34;1736420;82;21141;-67
2022/10/17 01:05:08;;;;;;;14.53;9.20;;;;;;;4.52;64.57;102207.02;1736125;82;21333;-67
2022/10/17 01:07:35;;;;;;;13.45;9.23;;;;;;;4.51;64.46;102207.98;1736304;82;21039;-67
2022/10/17 01:10:05;;;;;;;13.20;9.10;;;;;;;4.50;64.46;102208.49;1736022;82;21011;-67
2022/10/17 01:13:16;;;;;;;14.75;9.80;;;;;;;4.51;64.42;102207.98;1749723;79;20999;-67
2022/10/17 01:16:13;;;;;;;13.32;9.50;;;;;;;4.50;64.46;102212.47;1727849;81;21033;-67
2022/10/17 01:19:05;;;;;;;13.88;10.13;;;;;;;4.48;64.48;102213.66;1755869;80;21792;-67
2022/10/17 01:21:56;;;;;;;12.65;9.13;;;;;;;4.44;64.54;102216.66;1738639;81;21553;-66
2022/10/17 01:24:49;;;;;;;12.88;8.88;;;;;;;4.48;64.46;102218.95;1740446;79;21002;-67
2022/10/17 01:27:57;;;;;;;14.65;8.70;;;;;;;4.48;64.35;102220.28;1732531;82;21022;-67
2022/10/17 01:31:06;;;;;;;12.68;8.90;;;;;;;4.40;64.29;102214.02;1747747;80;20967;-67
2022/10/17 01:34:00;;;;;;;12.88;9.30;;;;;;;4.34;64.18;102213.39;1769989;81;21254;-67
2022/10/17 01:36:44;;;;;;;13.80;9.60;;;;;;;4.29;64.11;102213.61;1766697;80;21510;-67
2022/10/17 01:39:42;;;;;;;13.53;9.25;;;;;;;4.26;64.03;102214.77;1768325;79;21101;-67
2022/10/17 01:42:42;;;;;;;13.98;9.35;;;;;;;4.21;64.00;102213.13;1767269;80;21471;-66
2022/10/17 01:45:28;;;;;;;11.93;8.80;;;;;;;4.18;63.94;102219.63;1769373;81;21093;-67
2022/10/17 01:48:04;;;;;;;11.63;8.50;;;;;;;4.14;63.86;102204.25;1767017;80;21163;-67
2022/10/17 01:50:44;;;;;;;14.80;9.80;;;;;;;4.10;63.83;102200.31;1769793;81;21015;-68
2022/10/17 01:53:25;;;;;;;12.43;8.58;;;;;;;4.07;63.81;102194.88;1767075;81;21015;-68
2022/10/17 01:56:01;;;;;;;10.30;7.62;;;;;;;4.07;63.78;102191.41;1769211;81;21013;-66
2022/10/17 01:58:40;;;;;;;10.93;7.90;;;;;;;3.99;63.68;102198.39;1766426;81;21428;-67
2022/10/17 02:01:22;;;;;;;10.30;7.60;;;;;;;3.85;63.70;102195.63;1768037;81;22247;-67
2022/10/17 02:03:55;;;;;;;10.70;7.40;;;;;;;3.69;63.77;102190.77;1765569;80;21090;-66
2022/10/17 02:06:28;;;;;;;10.82;7.40;;;;;;;3.55;63.94;102190.13;1769714;81;21055;-66
2022/10/17 02:08:57;;;;;;;11.55;7.40;;;;;;;3.42;64.04;102189.37;1744018;80;21014;-67
2022/10/17 02:11:26;;;;;;;10.63;7.83;;;;;;;3.36;64.19;102191.36;1769701;81;20994;-67
2022/10/17 02:14:25;;;;;;;12.10;7.53;;;;;;;3.31;64.28;102182.30;1767108;80;21922;-67
2022/10/17 02:17:17;;;;;;;11.60;8.43;;;;;;;3.26;64.40;102188.09;1769820;81;21019;-66
2022/10/17 02:20:25;;;;;;;11.50;7.67;;;;;;;3.23;64.49;102187.92;1767251;81;21042;-67
2022/10/17 02:23:33;;;;;;;11.25;8.05;;;;;;;3.22;64.59;102192.86;1769595;81;20971;-67
2022/10/17 02:26:40;;;;;;;9.03;7.05;;;;;;;3.27;64.76;102193.69;1767244;80;20963;-66
2022/10/17 02:29:28;;;;;;;11.93;8.25;;;;;;;3.31;64.83;102192.36;1769038;81;21099;-67
2022/10/17 02:32:09;;;;;;;11.00;8.03;;;;;;;3.27;64.91;102198.47;1766322;80;20994;-67
2022/10/17 02:34:50;;;;;;;12.68;8.28;;;;;;;3.23;65.05;102202.45;1769768;81;21013;-67
2022/10/17 02:37:26;;;;;;;;;;;;;;;3.22;65.26;102194.17;1770518;80;21051;-67
2022/10/17 02:40:10;;;;;;;12.43;8.53;;;;;;;3.28;65.37;102193.51;1767326;81;20142;-67
2022/10/17 02:42:44;;;;;;;11.93;9.20;;;;;;;3.36;65.44;102191.87;1769076;81;21482;-67
2022/10/17 02:45:13;;;;;;;14.83;9.28;;;;;;;3.41;65.47;102199.59;1764143;80;21027;-66
2022/10/17 02:48:06;;;;;;;12.60;8.88;;;;;;;3.45;65.53;102202.21;1733958;82;21121;-67
2022/10/17 02:50:52;;;;;;;12.68;8.93;;;;;;;3.52;65.67;102205.85;1729064;82;21625;-66
2022/10/17 02:53:33;;;;;;;13.45;9.60;;;;;;;3.61;65.77;102197.88;1733642;82;20999;-66
2022/10/17 02:56:08;;;;;;;15.95;9.50;;;;;;;3.69;65.86;102180.70;1734048;82;21163;-66
2022/10/17 02:58:42;;;;;;;13.28;9.00;;;;;;;3.81;65.92;102175.33;1733737;82;21082;-66
2022/10/17 03:01:30;;;;;;;14.73;9.28;;;;;;;3.91;65.90;102171.16;1733884;82;21014;-67
2022/10/17 03:04:10;;;;;;;13.15;9.65;;;;;;;3.96;65.90;102174.94;1735876;82;21514;-67
2022/10/17 03:06:48;;;;;;;15.20;10.20;;;;;;;4.03;65.79;102182.19;1735771;81;21022;-66
2022/10/17 03:09:29;;;;;;;14.45;9.18;;;;;;;4.08;65.73;102175.86;1735899;82;21195;-67
2022/10/17 03:12:16;;;;;;;11.57;8.63;;;;;;;4.14;65.65;102180.45;1735938;82;21063;-66
2022/10/17 03:14:51;;;;;;;14.15;9.05;;;;;;;4.18;65.56;102181.78;1711650;82;21011;-66
2022/10/17 03:17:22;;;;;;;12.03;9.05;;;;;;;4.24;65.54;102185.02;1713309;82;21114;-66
2022/10/17 03:20:00;;;;;;;14.55;10.15;;;;;;;4.31;65.59;102192.60;1711913;82;21169;-66
2022/10/17 03:22:31;;;;;;;13.22;9.53;;;;;;;4.39;65.74;102197.83;1736158;82;21117;-66
2022/10/17 03:25:06;;;;;;;14.30;9.48;;;;;;;4.46;65.75;102204.05;1736086;82;21014;-66
2022/10/17 03:27:41;;;;;;;15.30;9.55;;;;;;;4.48;65.73;102212.34;1712940;82;21071;-69
2022/10/17 03:30:17;;;;;;;13.10;9.38;;;;;;;4.47;65.75;102211.48;1712320;82;21022;-66
2022/10/17 03:32:45;;;;;;;14.78;9.13;;;;;;;4.45;65.76;102213.00;1736023;82;20971;-68
2022/10/17 03:35:15;;;;;;;12.63;9.25;;;;;;;4.43;65.74;102229.54;1711266;82;21176;-67
2022/10/17 03:37:52;;;;;;;13.62;9.30;;;;;;;4.44;65.87;102220.63;1735661;82;20979;-67
2022/10/17 03:40:27;;;;;;;13.55;9.58;;;;;;;4.50;65.98;102222.23;1736565;82;21046;-67
2022/10/17 03:43:00;;;;;;;13.85;9.95;;;;;;;4.54;65.95;102224.84;1736017;82;21090;-67
2022/10/17 03:45:39;;;;;;;14.83;9.88;;;;;;;4.55;65.87;102225.19;1736169;81;21096;-67
2022/10/17 03:48:18;;;;;;;15.60;10.48;;;;;;;4.59;65.94;102234.41;1711936;82;21251;-67
2022/10/17 03:51:04;;;;;;;13.93;9.70;;;;;;;4.66;65.93;102228.73;1735815;82;21197;-66
2022/10/17 03:53:40;;;;;;;15.18;10.23;;;;;;;4.72;65.79;102235.16;1711132;82;21039;-67
2022/10/17 03:56:22;;;;;;;15.28;9.78;;;;;;;4.76;65.69;102245.20;1735916;82;21050;-69
2022/10/17 03:59:05;;;;;;;16.80;10.60;;;;;;;4.78;65.72;102251.66;1736055;82;21015;-66
2022/10/17 04:01:46;;;;;;;15.20;10.08;;;;;;;4.79;65.82;102254.11;1736036;82;21206;-67
2022/10/17 04:04:21;;;;;;;14.80;9.93;;;;;;;4.80;65.94;102263.69;1712294;82;21102;-67
2022/10/17 04:06:53;;;;;;;15.13;10.38;;;;;;;4.84;65.99;102268.98;1711833;82;21190;-66
2022/10/17 04:09:26;;;;;;;13.32;10.08;;;;;;;4.88;65.98;102265.48;1711395;82;20963;-66
2022/10/17 04:11:56;;;;;;;15.53;10.60;;;;;;;4.91;65.99;102273.89;1735588;82;21061;-66
2022/10/17 04:14:26;;;;;;;14.80;10.30;;;;;;;4.96;66.01;102273.84;1735730;82;21087;-68
2022/10/17 04:16:54;;;;;;;12.95;9.60;;;;;;;4.99;65.89;102277.47;1711115;82;21260;-67
2022/10/17 04:19:26;;;;;;;9.83;7.72;;;;;;;5.00;65.73;102272.01;1711965;82;20979;-66
2022/10/17 04:21:59;;;;;;;13.03;9.33;;;;;;;5.01;65.53;102271.50;1712236;82;21593;-66
2022/10/17 04:24:26;;;;;;;15.88;9.68;;;;;;;4.97;65.24;102272.36;1735928;82;20963;-66
2022/10/17 04:27:03;;;;;;;13.65;9.18;;;;;;;4.95;65.08;102270.37;1735224;82;22139;-66
2022/10/17 04:29:37;;;;;;;13.88;9.65;;;;;;;4.91;64.98;102271.74;1711768;82;21470;-68
2022/10/17 04:32:09;;;;;;;14.03;9.63;;;;;;;4.88;64.92;102262.33;1711730;82;21398;-67
2022/10/17 04:34:41;;;;;;;;;;;;;;;4.86;64.77;102268.28;1738327;82;20983;-66
2022/10/17 04:37:15;;;;;;;13.60;9.08;;;;;;;4.82;64.59;102267.50;1710732;82;20161;-67
2022/10/17 04:39:46;;;;;;;14.50;9.43;;;;;;;4.78;64.50;102262.25;1733396;82;21166;-67
2022/10/17 04:42:13;;;;;;;12.78;9.38;;;;;;;4.74;64.47;102257.80;1711197;82;21078;-67
2022/10/17 04:44:43;;;;;;;15.23;9.05;;;;;;;4.72;64.47;102255.00;1714303;81;20999;-66
2022/10/17 04:47:13;;;;;;;12.85;9.65;;;;;;;4.70;64.47;102260.45;1738747;82;21062;-67
2022/10/17 04:50:01;;;;;;;12.68;9.15;;;;;;;4.71;64.51;102252.86;1692508;82;21081;-67
2022/10/17 04:52:36;;;;;;;14.05;9.88;;;;;;;4.73;64.59;102248.70;1756155;79;21326;-67
2022/10/17 04:55:06;;;;;;;14.23;9.70;;;;;;;4.74;64.65;102245.05;1763758;79;20959;-66
2022/10/17 04:57:36;;;;;;;16.75;10.43;;;;;;;4.77;64.77;102252.63;1738036;81;21030;-67
2022/10/17 05:00:08;;;;;;;15.38;9.58;;;;;;;4.78;64.85;102248.50;1765444;80;20971;-66
2022/10/17 05:02:53;;;;;;;14.87;10.78;;;;;;;4.82;64.94;102252.94;1766385;80;21609;-67
2022/10/17 05:05:22;;;;;;;14.28;10.05;;;;;;;4.81;64.91;102252.12;1766454;80;21058;-66
2022/10/17 05:07:52;;;;;;;14.00;9.53;;;;;;;4.81;64.96;102260.06;1766360;80;21532;-67
2022/10/17 05:10:22;;;;;;;11.88;8.23;;;;;;;4.77;64.90;102260.11;1754207;80;21201;-66
2022/10/17 05:12:50;;;;;;;11.73;8.38;;;;;;;4.75;64.88;102258.13;1769357;80;21069;-66
2022/10/17 05:15:20;;;;;;;13.00;8.88;;;;;;;4.75;64.87;102258.13;1769332;81;21050;-65
2022/10/17 05:17:47;;;;;;;15.85;9.85;;;;;;;4.73;64.89;102257.46;1769474;80;21308;-66
2022/10/17 05:20:15;;;;;;;12.37;9.05;;;;;;;4.77;64.93;102256.61;1769645;81;21006;-67
2022/10/17 05:22:43;;;;;;;14.87;10.40;;;;;;;4.84;64.98;102256.25;1767485;80;21509;-66
2022/10/17 05:25:11;;;;;;;15.50;10.23;;;;;;;4.92;65.05;102261.47;1769575;81;21037;-65
2022/10/17 05:27:38;;;;;;;14.63;10.72;;;;;;;5.02;65.29;102262.05;1767471;80;21549;-67
2022/10/17 05:30:07;;;;;;;13.38;9.93;;;;;;;5.15;65.63;102259.61;1769694;81;21157;-66
2022/10/17 05:32:34;;;;;;;16.02;10.63;;;;;;;5.31;65.97;102252.53;1767274;80;21153;-67
2022/10/17 05:35:04;;;;;;;13.90;10.23;;;;;;;5.49;66.29;102250.84;1769649;81;21007;-67
2022/10/17 05:37:33;;;;;;;20.30;11.10;;;;;;;5.67;66.58;102251.84;1767421;81;21121;-67
2022/10/17 05:40:00;;;;;;;15.35;10.55;;;;;;;5.88;66.77;102257.21;1769923;81;21030;-67
2022/10/17 05:42:29;;;;;;;13.83;9.98;;;;;;;6.07;66.91;102251.38;1744288;81;21193;-66
2022/10/17 05:44:58;;;;;;;16.20;10.03;;;;;;;6.27;66.94;102256.91;1733568;82;21019;-66
2022/10/17 05:47:26;;;;;;;20.77;10.25;;;;;;;6.47;66.93;102261.63;1733859;82;21430;-67
2022/10/17 05:49:52;;;;;;;14.10;9.40;;;;;;;6.64;66.86;102260.37;1733937;82;20999;-67
2022/10/17 05:52:21;;;;;;;14.03;9.75;;;;;;;6.83;66.74;102258.11;1733668;82;21034;-67
2022/10/17 05:54:54;;;;;;;13.45;9.78;;;;;;;7.00;66.57;102266.95;1732619;82;20931;-67
2022/10/17 05:57:25;;;;;;;14.75;10.08;;;;;;;7.16;66.26;102255.74;1733796;82;21032;-68
2022/10/17 05:59:52;;;;;;;14.03;9.38;;;;;;;7.32;66.07;102261.28;1733955;82;20971;-69
2022/10/17 06:02:20;;;;;;;13.10;9.70;;;;;;;7.49;65.80;102255.98;1733811;82;21003;-67
2022/10/17 06:04:48;;;;;;;14.10;9.60;;;;;;;7.62;65.56;102265.37;1733929;82;21090;-67
2022/10/17 06:07:17;;;;;;;12.98;8.98;;;;;;;7.78;65.26;102271.41;1733919;82;21442;-67
2022/10/17 06:09:44;;;;;;;14.28;9.90;;;;;;;7.92;64.95;102274.44;1736023;82;21107;-68
2022/10/17 06:12:13;;;;;;;11.80;8.90;;;;;;;8.05;64.71;102275.83;1735691;81;21067;-67
2022/10/17 06:14:41;;;;;;;13.30;8.95;;;;;;;8.19;64.34;102276.70;1733886;82;21066;-67
2022/10/17 06:17:09;;;;;;;13.03;8.10;;;;;;;8.30;63.84;102285.98;1733806;82;20967;-68
2022/10/17 06:19:35;;;;;;;11.38;8.28;;;;;;;8.37;63.19;102282.83;1733905;82;21158;-68
2022/10/17 06:22:03;;;;;;;15.38;9.25;;;;;;;8.46;62.85;102277.67;1733895;82;21021;-67
2022/10/17 06:24:31;;;;;;;14.25;9.00;;;;;;;8.52;62.53;102270.19;1733734;82;21034;-69
2022/10/17 06:27:00;;;;;;;12.70;8.45;;;;;;;8.61;62.24;102264.17;1733967;82;21533;-67
2022/10/17 06:29:27;;;;;;;11.15;8.03;;;;;;;8.72;61.89;102266.27;1733906;82;21522;-68
2022/10/17 13:00:55;;;;;;;5.60;3.67;;;;;;;19.60;29.64;102082.42;1749518;80;23472;-76
2022/10/17 13:03:31;;;;;;;6.70;4.10;;;;;;;19.63;29.94;102088.12;1731010;83;20991;-74
2022/10/17 13:06:05;;;;;;;5.90;3.53;;;;;;;19.68;29.51;102091.36;1745107;81;21162;-76
2022/10/17 13:08:39;;;;;;;6.10;3.80;;;;;;;19.72;29.26;102088.34;1761062;81;21024;-76
2022/10/17 13:11:06;;;;;;;5.93;3.70;;;;;;;19.73;29.19;102082.38;1761360;80;20999;-76
2022/10/17 13:13:47;;;;;;;10.97;3.87;;;;;;;19.75;29.27;102074.23;1761040;81;21059;-76
2022/10/17 13:16:36;;;;;;;6.53;4.13;;;;;;;19.76;29.22;102079.10;1760664;81;20943;-76
2022/10/17 13:19:15;;;;;;;7.60;4.10;;;;;;;19.71;28.75;102077.25;1761050;81;21658;-75
2022/10/17 13:21:57;;;;;;;9.63;4.27;;;;;;;19.65;29.58;102071.04;1768680;80;21636;-75
2022/10/17 13:24:31;;;;;;;8.23;3.80;;;;;;;19.64;29.25;102070.78;1761130;81;21015;-76
2022/10/17 13:27:01;;;;;;;7.77;3.90;;;;;;;19.63;29.06;102069.66;1761307;80;21028;-76
2022/10/17 13:29:29;;;;;;;6.53;4.03;;;;;;;19.61;29.08;102067.77;1761004;81;21046;-76
2022/10/17 13:32:02;;;;;;;5.30;3.43;;;;;;;19.60;29.17;102066.16;1761367;80;21109;-75
2022/10/17 13:34:32;;;;;;;7.43;3.90;;;;;;;19.59;28.74;102072.67;1760891;81;21027;-76
2022/10/17 13:37:03;;;;;;;8.00;4.20;;;;;;;19.55;29.38;102067.56;1761279;81;20952;-76
2022/10/17 13:39:38;;;;;;;6.77;4.30;;;;;;;19.54;29.21;102069.98;1761120;80;20975;-75
2022/10/17 13:42:04;;;;;;;6.37;4.00;;;;;;;19.53;29.33;102078.67;1761475;80;21170;-74
2022/10/17 13:44:34;;;;;;;5.33;3.60;;;;;;;19.54;29.53;102078.92;1761226;81;21618;-74
2022/10/17 13:47:00;;;;;;;5.97;4.30;;;;;;;19.60;29.60;102079.71;1761726;80;21465;-75
2022/10/17 13:49:41;;;;;;;7.63;4.73;;;;;;;19.61;29.67;102079.97;1743244;81;21023;-75
2022/10/17 13:52:20;;;;;;;7.20;4.17;;;;;;;19.59;29.66;102080.26;1731746;83;21098;-75
2022/10/17 13:54:56;;;;;;;6.90;3.93;;;;;;;19.59;29.80;102080.81;1731494;83;20964;-76
2022/10/17 13:57:24;;;;;;;6.90;4.57;;;;;;;19.59;29.92;102069.97;1731673;81;21252;-76
2022/10/17 13:59:57;;;;;;;7.30;4.20;;;;;;;19.56;29.83;102069.17;1734054;83;20994;-75
2022/10/17 14:02:26;;;;;;;7.70;4.30;;;;;;;19.52;30.10;102074.34;1734105;83;20888;-76
2022/10/17 14:05:14;;;;;;;6.67;4.10;;;;;;;19.47;30.36;102070.30;1733906;83;20961;-74
2022/10/17 14:07:59;;;;;;;6.63;4.20;;;;;;;19.44;30.60;102064.88;1733936;81;20992;-74
2022/10/17 14:10:35;;;;;;;8.50;4.40;;;;;;;19.39;30.69;102066.28;1731099;83;21825;-75
2022/10/17 14:13:04;;;;;;;8.07;4.50;;;;;;;19.32;30.68;102060.37;1732209;83;21004;-74
2022/10/17 14:15:34;;;;;;;8.93;4.60;;;;;;;19.26;30.85;102062.84;1731936;83;20948;-75
2022/10/17 14:18:06;;;;;;;6.40;4.40;;;;;;;19.20;30.81;102062.59;1730900;83;21039;-74
2022/10/17 14:20:37;;;;;;;8.07;4.60;;;;;;;19.12;31.01;102071.31;1730738;83;20980;-75
2022/10/17 14:23:04;;;;;;;9.90;4.27;;;;;;;19.08;31.26;102070.22;1730757;83;21173;-74
2022/10/17 14:25:37;;;;;;;6.60;4.43;;;;;;;19.00;31.37;102064.03;1763986;81;20935;-74
2022/10/17 14:28:15;;;;;;;10.10;5.27;;;;;;;18.89;31.49;102065.43;1790197;78;21078;-75
2022/10/17 14:30:46;;;;;;;6.63;4.20;;;;;;;18.80;31.77;102058.95;1778403;78;21015;-75
2022/10/17 14:33:18;;;;;;;7.43;4.80;;;;;;;18.69;31.98;102062.73;1753731;80;21430;-74
2022/10/17 14:35:51;;;;;;;10.77;5.80;;;;;;;18.59;32.14;102061.41;1753469;81;21149;-74
2022/10/17 14:38:17;;;;;;;10.65;5.60;;;;;;;18.46;32.44;102054.15;1753684;81;21063;-74
2022/10/17 14:40:54;;;;;;;11.10;6.60;;;;;;;18.35;32.71;102056.58;1753627;81;20936;-75
2022/10/17 14:43:25;;;;;;;15.03;9.00;;;;;;;18.25;32.99;102057.95;1723547;83;21059;-74
2022/10/17 14:45:52;;;;;;;17.80;11.37;;;;;;;18.13;33.34;102051.48;1724014;82;20991;-75
2022/10/17 14:48:21;;;;;;;22.47;13.53;;;;;;;17.99;33.55;102053.09;1746329;80;21109;-74
2022/10/17 14:51:09;;;;;;;18.83;13.40;;;;;;;17.74;34.00;102053.86;1753491;80;21044;-75
2022/10/17 14:53:37;;;;;;;18.27;12.53;;;;;;;17.74;34.00;102053.86;1758929;81;21265;-75
2022/10/17 14:56:20;;;;;;;18.57;11.23;;;;;;;17.61;34.18;102063.30;1753712;80;21059;-74
2022/10/17 14:58:47;;;;;;;16.07;10.67;;;;;;;17.50;34.46;102071.09;1757142;81;21732;-75
2022/10/17 15:01:14;;;;;;;15.87;10.87;;;;;;;17.37;34.70;102073.75;1753718;81;21751;-76
2022/10/17 15:03:41;;;;;;;13.00;8.93;;;;;;;17.24;35.10;102071.04;1758625;81;21704;-74
2022/10/17 15:06:17;;;;;;;14.00;9.23;;;;;;;17.10;35.56;102072.58;1753526;81;22241;-76
2022/10/17 15:08:44;;;;;;;12.90;7.83;;;;;;;16.96;35.82;102068.75;1758583;81;21699;-74
2022/10/17 15:11:11;;;;;;;11.90;7.80;;;;;;;16.79;36.21;102074.33;1753528;80;21734;-77
2022/10/17 15:13:37;;;;;;;10.00;6.73;;;;;;;16.65;36.45;102080.70;1758729;81;21742;-74
2022/10/17 15:16:15;;;;;;;12.87;6.63;;;;;;;16.51;36.69;102080.32;1753478;81;22065;-74
2022/10/17 15:18:43;;;;;;;9.73;5.97;;;;;;;16.28;37.16;102086.09;1757313;81;22085;-76
2022/10/17 15:21:14;;;;;;;8.57;5.50;;;;;;;16.14;37.50;102090.56;1753585;80;21536;-76
2022/10/17 15:23:41;;;;;;;9.10;5.15;;;;;;;16.14;37.50;102090.56;1758970;81;21460;-75
2022/10/17 15:26:20;;;;;;;10.13;5.47;;;;;;;16.06;37.70;102089.70;1753557;80;21201;-75
2022/10/17 15:28:49;;;;;;;8.57;4.80;;;;;;;15.94;37.89;102086.34;1758561;81;21542;-75
2022/10/17 15:31:21;;;;;;;8.63;5.00;;;;;;;15.84;38.08;102087.59;1753501;80;21476;-75
2022/10/17 15:33:49;;;;;;;9.00;5.20;;;;;;;15.63;38.28;102098.14;1758694;81;21492;-75
2022/10/17 15:36:30;;;;;;;8.87;5.23;;;;;;;15.63;38.28;102098.14;1753432;81;21514;-75
2022/10/17 15:39:00;;;;;;;9.77;6.27;;;;;;;15.52;38.80;102100.96;1758511;81;21458;-75
2022/10/17 15:41:30;;;;;;;15.70;8.80;;;;;;;15.40;38.99;102101.92;1764236;80;21338;-75
2022/10/17 15:43:56;;;;;;;13.60;8.37;;;;;;;15.29;39.22;102100.69;1752679;81;21784;-75
2022/10/17 15:46:27;;;;;;;12.07;8.27;;;;;;;15.19;39.43;102100.84;1752889;81;21221;-75
2022/10/17 15:48:56;;;;;;;14.53;8.58;;;;;;;15.08;39.66;102101.78;1752239;80;21190;-75
2022/10/17 15:51:22;;;;;;;14.53;9.03;;;;;;;14.98;39.98;102100.31;1738053;81;21112;-75
2022/10/17 15:53:49;;;;;;;13.40;9.53;;;;;;;14.88;40.14;102102.86;1721495;83;21129;-75
2022/10/17 15:56:34;;;;;;;15.10;9.60;;;;;;;14.80;40.27;102099.23;1758905;81;21354;-74
2022/10/17 15:59:01;;;;;;;17.40;11.63;;;;;;;14.72;40.51;102099.13;1753261;80;21217;-75
2022/10/17 16:01:30;;;;;;;18.37;11.20;;;;;;;14.61;40.65;102102.21;1759213;81;21223;-74
2022/10/17 16:03:57;;;;;;;16.07;10.53;;;;;;;14.52;40.92;102107.71;1753244;80;21309;-74
2022/10/17 16:06:25;;;;;;;14.87;9.60;;;;;;;14.44;41.10;102108.88;1758942;81;21323;-75
2022/10/17 16:08:53;;;;;;;14.17;8.13;;;;;;;14.38;41.58;102107.70;1753731;80;21153;-75
2022/10/17 16:11:31;;;;;;;14.10;7.90;;;;;;;14.33;41.97;102114.36;1758872;81;21311;-75
2022/10/17 16:14:00;;;;;;;13.50;7.80;;;;;;;14.22;42.31;102111.50;1753240;80;21297;-74
2022/10/17 16:16:28;;;;;;;13.40;8.07;;;;;;;14.13;42.58;102118.33;1759283;81;21260;-80
2022/10/17 16:18:56;;;;;;;13.10;8.17;;;;;;;14.03;42.93;102117.62;1753391;81;21757;-75
2022/10/17 16:21:26;;;;;;;12.90;8.60;;;;;;;13.91;43.31;102114.70;1759173;81;21259;-74
2022/10/17 16:23:52;;;;;;;13.47;8.07;;;;;;;13.79;43.64;102114.77;1752589;81;21316;-75
2022/10/17 16:26:19;;;;;;;14.80;7.97;;;;;;;13.69;44.04;102115.39;1749969;82;21419;-75
2022/10/17 16:28:46;;;;;;;13.07;7.70;;;;;;;13.57;44.31;102109.24;1749669;82;21111;-74
2022/10/17 16:31:28;;;;;;;15.97;8.33;;;;;;;13.46;44.65;102112.26;1753480;81;21143;-75
2022/10/17 16:33:55;;;;;;;13.20;8.23;;;;;;;13.36;45.08;102111.52;1753391;81;21242;-76
2022/10/17 16:36:23;;;;;;;14.77;8.23;;;;;;;13.25;45.39;102111.54;1759225;81;20971;-75
2022/10/17 16:38:52;;;;;;;12.90;7.03;;;;;;;13.17;45.62;102105.99;1753220;81;21280;-74
2022/10/17 16:41:26;;;;;;;10.77;6.83;;;;;;;13.09;45.94;102106.34;1758841;81;21259;-75
2022/10/17 16:43:54;;;;;;;11.30;7.12;;;;;;;13.01;46.10;102108.05;1753219;80;21264;-75
2022/10/17 16:46:21;;;;;;;13.13;6.97;;;;;;;12.93;46.28;102105.72;1758624;81;21070;-75
2022/10/17 16:48:48;;;;;;;13.05;7.70;;;;;;;12.86;46.41;102112.02;1753402;80;21365;-75
2022/10/17 16:51:16;;;;;;;11.40;6.78;;;;;;;12.81;46.53;102105.21;1758918;81;21093;-74
2022/10/17 16:53:49;;;;;;;12.50;7.65;;;;;;;12.76;46.58;102107.77;1753287;80;21235;-75
2022/10/17 16:56:18;;;;;;;9.30;6.58;;;;;;;12.73;46.75;102106.08;1758773;81;21492;-75
2022/10/17 16:58:44;;;;;;;12.50;7.53;;;;;;;12.68;46.74;102102.23;1753288;81;21003;-75
2022/10/17 17:01:14;;;;;;;14.03;8.48;;;;;;;12.64;46.83;102099.73;1758832;81;21090;-76
2022/10/17 17:03:43;;;;;;;14.10;8.53;;;;;;;12.63;46.81;102106.66;1722903;81;21023;-75
2022/10/17 17:06:20;;;;;;;13.13;8.75;;;;;;;12.61;46.81;102103.41;1758798;81;21228;-75
2022/10/17 17:08:47;;;;;;;15.00;8.80;;;;;;;12.59;46.92;102101.47;1752430;81;21625;-76
2022/10/17 17:11:16;;;;;;;13.00;7.83;;;;;;;12.57;47.10;102100.87;1758695;81;20995;-76
2022/10/17 17:13:43;;;;;;;11.80;7.40;;;;;;;12.54;47.18;102096.82;1753549;81;21027;-76
2022/10/17 17:16:21;;;;;;;13.50;7.30;;;;;;;12.51;47.27;102095.13;1758795;81;21449;-76
2022/10/17 17:18:50;;;;;;;11.88;6.58;;;;;;;12.49;47.41;102098.55;1721709;81;21921;-75
2022/10/17 17:21:18;;;;;;;11.00;6.75;;;;;;;12.45;47.54;102104.91;1727573;81;20975;-75
2022/10/17 17:23:46;;;;;;;9.58;5.58;;;;;;;12.40;47.91;102104.27;1753307;80;21113;-75
2022/10/17 17:26:18;;;;;;;11.25;6.72;;;;;;;12.33;48.34;102100.86;1753355;81;20969;-75
2022/10/17 17:28:46;;;;;;;10.78;6.62;;;;;;;12.28;48.75;102105.30;1758681;81;21168;-75
2022/10/17 17:31:17;;;;;;;11.43;7.10;;;;;;;12.19;49.03;102106.95;1753292;80;21325;-76
2022/10/17 17:33:45;;;;;;;12.25;7.12;;;;;;;12.15;49.13;102111.67;1758769;81;21145;-75
2022/10/17 17:36:18;;;;;;;13.48;7.70;;;;;;;12.08;49.16;102105.60;1753615;80;20984;-75
2022/10/17 17:38:45;;;;;;;9.88;6.40;;;;;;;12.03;49.23;102104.12;1754235;81;21047;-77
2022/10/17 17:41:18;;;;;;;11.00;6.95;;;;;;;11.97;49.36;102108.52;1753660;81;21535;-75
2022/10/17 17:43:44;;;;;;;;;;;;;;;11.92;49.51;102105.20;1761488;81;21145;-75
2022/10/17 17:46:13;;;;;;;12.60;7.53;;;;;;;11.87;49.68;102109.06;1721957;83;20475;-76
2022/10/17 17:48:40;;;;;;;17.30;8.80;;;;;;;11.84;49.80;102105.50;1759683;80;21046;-74
2022/10/17 17:51:10;;;;;;;14.40;8.05;;;;;;;11.80;49.95;102094.92;1754118;80;20967;-75
2022/10/17 17:53:37;;;;;;;13.68;7.92;;;;;;;11.78;50.11;102093.02;1759215;81;20960;-73
2022/10/17 17:56:07;;;;;;;12.35;7.85;;;;;;;11.78;50.24;102093.02;1754213;81;21085;-74
2022/10/17 17:58:34;;;;;;;12.45;7.97;;;;;;;11.79;50.45;102095.17;1758944;81;20999;-75
2022/10/17 18:01:01;;;;;;;14.43;7.92;;;;;;;11.76;50.58;102089.73;1754106;81;20976;-75
2022/10/17 18:03:29;;;;;;;14.05;7.90;;;;;;;11.76;50.74;102089.73;1759510;81;21071;-75
2022/10/17 18:05:55;;;;;;;12.03;8.28;;;;;;;11.72;50.96;102086.70;1753510;80;21130;-75
2022/10/17 18:08:22;;;;;;;14.65;9.30;;;;;;;11.70;51.18;102083.95;1758966;81;21372;-75
2022/10/17 18:10:53;;;;;;;14.40;9.33;;;;;;;11.64;51.35;102085.66;1753475;80;21557;-75
2022/10/17 18:13:18;;;;;;;14.47;9.05;;;;;;;11.58;51.53;102087.93;1756165;80;21005;-75
2022/10/17 18:15:48;;;;;;;15.98;10.15;;;;;;;11.53;51.71;102088.30;1760948;79;21009;-75
2022/10/17 18:18:14;;;;;;;17.02;10.13;;;;;;;11.49;51.82;102091.43;1762305;79;21023;-75